createdAt,value
2023-03-08T00:00:24.421Z,94177
2023-03-08T00:01:27.024Z,94178
2023-03-08T00:02:29.605Z,94181.5
2023-03-08T00:03:32.120Z,94182.9
2023-03-08T00:04:34.618Z,94186.1
2023-03-08T00:05:37.247Z,94188.9
2023-03-08T00:06:39.461Z,94183
2023-03-08T00:07:41.407Z,94195.8
2023-03-08T00:08:43.959Z,94194.3
2023-03-08T00:09:46.682Z,94195.9
2023-03-08T00:10:48.605Z,94189.5
2023-03-08T00:11:51.291Z,94195
2023-03-08T00:12:53.829Z,94191.5
2023-03-08T00:13:56.392Z,94195.8
2023-03-08T00:14:58.373Z,94197.4
2023-03-08T00:16:01.126Z,94198.5
2023-03-08T00:17:03.575Z,94201
2023-03-08T00:18:06.341Z,94199.2
2023-03-08T00:19:08.854Z,94194.1
2023-03-08T00:20:11.410Z,94197.1
2023-03-08T00:21:13.942Z,94201.8
2023-03-08T00:22:15.924Z,94196.1
2023-03-08T00:23:18.179Z,94203.6
2023-03-08T00:24:20.726Z,94198.7
2023-03-08T00:25:23.006Z,94199.7
2023-03-08T00:26:25.573Z,94192.8
2023-03-08T00:27:28.096Z,94193.5
2023-03-08T00:28:30.616Z,94192.2
2023-03-08T00:29:33.138Z,94192.6
2023-03-08T00:30:35.656Z,94196.7
2023-03-08T00:31:38.038Z,94199.6
2023-03-08T00:32:41.013Z,94203.9
2023-03-08T00:33:42.883Z,94200.1
2023-03-08T00:34:45.387Z,94194.2
2023-03-08T00:35:47.948Z,94197.5
2023-03-08T00:36:50.554Z,94189.6
2023-03-08T00:37:53.078Z,94199.2
2023-03-08T00:38:55.596Z,94188.3
2023-03-08T00:39:57.848Z,94189.8
2023-03-08T00:41:00.369Z,94188
2023-03-08T00:42:02.618Z,94190.8
2023-03-08T00:43:05.384Z,94188.7
2023-03-08T00:44:07.625Z,94189.6
2023-03-08T00:45:10.285Z,94189.1
2023-03-08T00:46:12.798Z,94186.3
2023-03-08T00:47:15.008Z,94190.8
2023-03-08T00:48:17.234Z,94185
2023-03-08T00:49:19.780Z,94190
2023-03-08T00:50:22.312Z,94181.8
2023-03-08T00:51:24.612Z,94183.2
2023-03-08T00:52:27.125Z,94191.6
2023-03-08T00:53:29.139Z,94193.3
2023-03-08T00:54:31.345Z,94190.4
2023-03-08T00:55:33.848Z,94188
2023-03-08T00:56:35.798Z,94189.9
2023-03-08T00:57:38.015Z,94189
2023-03-08T00:58:40.625Z,94185.9
2023-03-08T00:59:43.171Z,94191.6
2023-03-08T01:00:45.605Z,94198.4
2023-03-08T01:01:48.188Z,94196
2023-03-08T01:02:50.697Z,94196.3
2023-03-08T01:03:53.683Z,94192.7
2023-03-08T01:04:56.323Z,94189.9
2023-03-08T01:05:58.265Z,94193.6
2023-03-08T01:07:00.819Z,94192.4
2023-03-08T01:08:03.338Z,94194.3
2023-03-08T01:09:05.880Z,94203.5
2023-03-08T01:10:08.434Z,94202.4
2023-03-08T01:11:10.397Z,94205.1
2023-03-08T01:12:13.196Z,94205.1
2023-03-08T01:13:15.187Z,94205.3
2023-03-08T01:14:17.892Z,94202.8
2023-03-08T01:15:20.480Z,94200.3
2023-03-08T01:16:22.727Z,94200.1
2023-03-08T01:17:25.047Z,94188.4
2023-03-08T01:18:27.005Z,94188.2
2023-03-08T01:19:28.982Z,94183.3
2023-03-08T01:20:31.486Z,94180.9
2023-03-08T01:21:33.927Z,94186.2
2023-03-08T01:22:36.192Z,94183
2023-03-08T01:23:38.435Z,94190.8
2023-03-08T01:24:42.649Z,94191.9
2023-03-08T01:25:44.920Z,94191.4
2023-03-08T01:26:47.455Z,94188.1
2023-03-08T01:27:49.967Z,94186.4
2023-03-08T01:28:52.238Z,94190.1
2023-03-08T01:29:54.821Z,94192.4
2023-03-08T01:30:56.801Z,94189.8
2023-03-08T01:31:59.300Z,94191.6
2023-03-08T01:33:01.822Z,94186.5
2023-03-08T01:34:04.325Z,94192.1
2023-03-08T01:35:06.573Z,94188.6
2023-03-08T01:36:09.412Z,94185.4
2023-03-08T01:37:12.007Z,94182.5
2023-03-08T01:38:14.264Z,94187.8
2023-03-08T01:39:16.767Z,94188.5
2023-03-08T01:40:18.999Z,94192.5
2023-03-08T01:41:21.542Z,94192.8
2023-03-08T01:42:24.103Z,94193.6
2023-03-08T01:43:26.341Z,94194.9
2023-03-08T01:44:28.891Z,94194.5
2023-03-08T01:45:31.516Z,94197.5
2023-03-08T01:46:34.116Z,94194.9
2023-03-08T01:47:36.370Z,94190
2023-03-08T01:48:38.315Z,94187
2023-03-08T01:49:40.816Z,94184.2
2023-03-08T01:50:43.075Z,94180.9
2023-03-08T01:51:45.724Z,94180
2023-03-08T01:52:47.492Z,94172.5
2023-03-08T01:53:50.036Z,94178.9
2023-03-08T01:54:52.648Z,94175.6
2023-03-08T01:55:54.893Z,94165.2
2023-03-08T01:56:57.127Z,94163.6
2023-03-08T01:57:59.377Z,94156.6
2023-03-08T01:59:01.426Z,94164.6
2023-03-08T02:00:03.987Z,94147
2023-03-08T02:01:06.901Z,94152.6
2023-03-08T02:02:09.553Z,94155.1
2023-03-08T02:03:12.128Z,94147.4
2023-03-08T02:04:14.679Z,94152.4
2023-03-08T02:05:16.633Z,94152.9
2023-03-08T02:06:19.136Z,94147.4
2023-03-08T02:07:21.663Z,94146.5
2023-03-08T02:08:23.889Z,94141.4
2023-03-08T02:09:26.407Z,94141.5
2023-03-08T02:10:28.666Z,94145.8
2023-03-08T02:11:31.180Z,94144.6
2023-03-08T02:12:33.410Z,94142.1
2023-03-08T02:13:35.922Z,94142.7
2023-03-08T02:14:38.159Z,94139.3
2023-03-08T02:15:40.389Z,94135.6
2023-03-08T02:16:43.042Z,94139
2023-03-08T02:17:45.591Z,94142.1
2023-03-08T02:18:47.556Z,94142.8
2023-03-08T02:19:50.109Z,94145.3
2023-03-08T02:20:52.334Z,94140
2023-03-08T02:21:54.839Z,94138.9
2023-03-08T02:22:57.099Z,94139
2023-03-08T02:23:59.359Z,94138.7
2023-03-08T02:25:02.077Z,94134.8
2023-03-08T02:26:04.615Z,94133.5
2023-03-08T02:27:06.855Z,94138.7
2023-03-08T02:28:09.378Z,94132.2
2023-03-08T02:29:11.321Z,94132.4
2023-03-08T02:30:13.552Z,94130.5
2023-03-08T02:31:16.038Z,94130.4
2023-03-08T02:32:18.853Z,94129.2
2023-03-08T02:33:21.454Z,94133
2023-03-08T02:34:23.676Z,94125.9
2023-03-08T02:35:25.891Z,94123.8
2023-03-08T02:36:27.877Z,94119.3
2023-03-08T02:37:30.349Z,94123.8
2023-03-08T02:38:32.895Z,94124.5
2023-03-08T02:39:35.128Z,94117.5
2023-03-08T02:40:37.647Z,94120.2
2023-03-08T02:41:39.872Z,94113.3
2023-03-08T02:42:42.382Z,94113.3
2023-03-08T02:43:44.854Z,94121.4
2023-03-08T02:44:47.102Z,94120.4
2023-03-08T02:45:49.630Z,94121.9
2023-03-08T02:46:51.850Z,94118.7
2023-03-08T02:47:53.903Z,94116.8
2023-03-08T02:48:56.559Z,94116.6
2023-03-08T02:49:58.758Z,94114.1
2023-03-08T02:51:01.274Z,94113.5
2023-03-08T02:52:03.760Z,94112.1
2023-03-08T02:53:05.724Z,94117.9
2023-03-08T02:54:07.958Z,94109
2023-03-08T02:55:10.542Z,94112.5
2023-03-08T02:56:12.509Z,94114.1
2023-03-08T02:57:14.724Z,94117.6
2023-03-08T02:58:17.198Z,94113.3
2023-03-08T02:59:19.157Z,94113.3
2023-03-08T03:00:21.399Z,94117.5
2023-03-08T03:01:24.114Z,94113.3
2023-03-08T03:02:26.733Z,94111.5
2023-03-08T03:03:29.332Z,94114.3
2023-03-08T03:04:31.860Z,94109.5
2023-03-08T03:05:34.093Z,94112.5
2023-03-08T03:06:36.522Z,94106.5
2023-03-08T03:07:38.853Z,94115.8
2023-03-08T03:08:40.807Z,94114.3
2023-03-08T03:09:43.029Z,94110.2
2023-03-08T03:10:45.538Z,94111.5
2023-03-08T03:11:47.850Z,94110.7
2023-03-08T03:12:50.377Z,94107.3
2023-03-08T03:13:52.879Z,94105.9
2023-03-08T03:14:55.090Z,94111.5
2023-03-08T03:15:57.814Z,94114.4
2023-03-08T03:17:00.397Z,94112.6
2023-03-08T03:18:02.622Z,94104.4
2023-03-08T03:19:05.221Z,94104.6
2023-03-08T03:20:07.474Z,94107.5
2023-03-08T03:21:09.997Z,94102.4
2023-03-08T03:22:11.958Z,94099.2
2023-03-08T03:23:14.278Z,94095.5
2023-03-08T03:24:16.243Z,94093.2
2023-03-08T03:25:18.725Z,94096
2023-03-08T03:26:20.935Z,94093.6
2023-03-08T03:27:23.216Z,94094.7
2023-03-08T03:28:25.447Z,94089.3
2023-03-08T03:29:27.753Z,94086.8
2023-03-08T03:30:30.261Z,94089.1
2023-03-08T03:31:32.764Z,94091
2023-03-08T03:32:35.458Z,94088.5
2023-03-08T03:33:38.054Z,94089.2
2023-03-08T03:34:40.827Z,94088.3
2023-03-08T03:35:43.172Z,94085.7
2023-03-08T03:36:45.684Z,94088
2023-03-08T03:37:48.215Z,94083.4
2023-03-08T03:38:50.737Z,94082.1
2023-03-08T03:39:52.670Z,94086.2
2023-03-08T03:40:55.177Z,94084.9
2023-03-08T03:41:57.406Z,94088.1
2023-03-08T03:42:59.689Z,94081.3
2023-03-08T03:44:01.902Z,94081.1
2023-03-08T03:45:04.418Z,94077.6
2023-03-08T03:46:07.074Z,94073.9
2023-03-08T03:47:09.686Z,94077.1
2023-03-08T03:48:11.921Z,94076.6
2023-03-08T03:49:14.431Z,94077.1
2023-03-08T03:50:17.030Z,94075.3
2023-03-08T03:51:19.311Z,94074.8
2023-03-08T03:52:21.523Z,94075.8
2023-03-08T03:53:23.784Z,94077.4
2023-03-08T03:54:26.446Z,94075.7
2023-03-08T03:55:28.982Z,94076.5
2023-03-08T03:56:31.526Z,94076
2023-03-08T03:57:34.029Z,94079
2023-03-08T03:58:36.605Z,94074
2023-03-08T03:59:38.832Z,94074.8
2023-03-08T04:00:41.355Z,94075.3
2023-03-08T04:01:43.321Z,94070.7
2023-03-08T04:02:46.070Z,94070.6
2023-03-08T04:03:48.894Z,94068.3
2023-03-08T04:04:51.468Z,94071.9
2023-03-08T04:05:54.081Z,94072.9
2023-03-08T04:06:56.640Z,94068.2
2023-03-08T04:07:59.164Z,94067.1
2023-03-08T04:09:01.642Z,94067.3
2023-03-08T04:10:03.920Z,94065.4
2023-03-08T04:11:06.421Z,94066.3
2023-03-08T04:12:08.929Z,94063.6
2023-03-08T04:13:11.420Z,94060
2023-03-08T04:14:13.699Z,94060.5
2023-03-08T04:15:15.945Z,94058.6
2023-03-08T04:16:18.929Z,94059
2023-03-08T04:17:21.471Z,94059.3
2023-03-08T04:18:24.020Z,94063.6
2023-03-08T04:19:26.527Z,94056.5
2023-03-08T04:20:29.084Z,94059.8
2023-03-08T04:21:31.887Z,94059.1
2023-03-08T04:22:34.443Z,94058.1
2023-03-08T04:23:36.394Z,94053.6
2023-03-08T04:24:38.915Z,94056.9
2023-03-08T04:25:40.869Z,94054.3
2023-03-08T04:26:43.642Z,94046.2
2023-03-08T04:27:45.865Z,94045.6
2023-03-08T04:28:48.355Z,94049.7
2023-03-08T04:29:51.022Z,94044.5
2023-03-08T04:30:53.615Z,94051.1
2023-03-08T04:31:55.852Z,94050.2
2023-03-08T04:32:58.351Z,94053.3
2023-03-08T04:34:00.869Z,94045.6
2023-03-08T04:35:03.452Z,94040.7
2023-03-08T04:36:05.639Z,94037.8
2023-03-08T04:37:08.052Z,94038.2
2023-03-08T04:38:10.292Z,94041.1
2023-03-08T04:39:12.800Z,94033.5
2023-03-08T04:40:14.789Z,94026.9
2023-03-08T04:41:17.036Z,94025.9
2023-03-08T04:42:19.569Z,94024.9
2023-03-08T04:43:21.791Z,94025.5
2023-03-08T04:44:24.096Z,94023.1
2023-03-08T04:45:26.096Z,94026.2
2023-03-08T04:46:28.977Z,94022.3
2023-03-08T04:47:31.244Z,94020
2023-03-08T04:48:33.445Z,94027.8
2023-03-08T04:49:35.388Z,94023.4
2023-03-08T04:50:37.328Z,94017.5
2023-03-08T04:51:39.525Z,94012.3
2023-03-08T04:52:42.111Z,94012.1
2023-03-08T04:53:44.679Z,94011.5
2023-03-08T04:54:47.168Z,94008.7
2023-03-08T04:55:49.116Z,94005.3
2023-03-08T04:56:51.607Z,94003.4
2023-03-08T04:57:53.857Z,93999.9
2023-03-08T04:58:56.102Z,94001.6
2023-03-08T04:59:58.303Z,93997.6
2023-03-08T05:01:00.865Z,93997.8
2023-03-08T05:02:03.511Z,93997.4
2023-03-08T05:03:05.845Z,93997.9
2023-03-08T05:04:08.357Z,94001
2023-03-08T05:05:11.055Z,93997.6
2023-03-08T05:06:13.327Z,93997.3
2023-03-08T05:07:15.819Z,93988.8
2023-03-08T05:08:18.386Z,93986.1
2023-03-08T05:09:20.903Z,93984.8
2023-03-08T05:10:23.437Z,93981.3
2023-03-08T05:11:25.956Z,93974.8
2023-03-08T05:12:27.606Z,93980.9
2023-03-08T05:13:30.131Z,93978.7
2023-03-08T05:14:32.620Z,93971.9
2023-03-08T05:15:34.820Z,93972.5
2023-03-08T05:16:37.699Z,93972.5
2023-03-08T05:17:39.999Z,93969.9
2023-03-08T05:18:42.509Z,93967.9
2023-03-08T05:19:44.785Z,93965.2
2023-03-08T05:20:47.297Z,93965.2
2023-03-08T05:21:49.531Z,93958.9
2023-03-08T05:23:56.812Z,93958.6
2023-03-08T05:24:59.357Z,93958
2023-03-08T05:26:01.862Z,93959.7
2023-03-08T05:27:04.092Z,93956.8
2023-03-08T05:28:06.569Z,93957.3
2023-03-08T05:29:08.828Z,93959.2
2023-03-08T05:30:11.107Z,93957.3
2023-03-08T05:31:13.424Z,93957.9
2023-03-08T05:32:16.470Z,93960.6
2023-03-08T05:33:18.543Z,93960.2
2023-03-08T05:34:20.753Z,93960.3
2023-03-08T05:35:22.981Z,93959.2
2023-03-08T05:36:25.470Z,93958.1
2023-03-08T05:37:29.136Z,93950.6
2023-03-08T05:38:31.417Z,93955
2023-03-08T05:39:34.207Z,93954.9
2023-03-08T05:40:36.732Z,93950
2023-03-08T05:41:38.969Z,93946.3
2023-03-08T05:42:41.162Z,93942.5
2023-03-08T05:43:43.648Z,93937.7
2023-03-08T05:44:46.146Z,93937.9
2023-03-08T05:45:49.336Z,93936.8
2023-03-08T05:46:51.827Z,93934.4
2023-03-08T05:47:54.369Z,93934.8
2023-03-08T05:48:56.582Z,93935.3
2023-03-08T05:49:58.831Z,93935.7
2023-03-08T05:51:01.082Z,93933.7
2023-03-08T05:52:03.572Z,93935.2
2023-03-08T05:53:05.544Z,93932.3
2023-03-08T05:54:07.491Z,93933.5
2023-03-08T05:55:10.114Z,93938.9
2023-03-08T05:56:12.662Z,93933.4
2023-03-08T05:57:15.188Z,93935.3
2023-03-08T05:58:17.685Z,93933.7
2023-03-08T05:59:20.180Z,93936.8
2023-03-08T06:00:22.695Z,93934.2
2023-03-08T06:01:25.212Z,93938.3
2023-03-08T06:02:27.982Z,93938.2
2023-03-08T06:03:30.974Z,93935.8
2023-03-08T06:04:33.323Z,93933.7
2023-03-08T06:05:35.847Z,93936
2023-03-08T06:06:37.786Z,93934.3
2023-03-08T06:07:40.291Z,93928.7
2023-03-08T06:08:41.965Z,93928.9
2023-03-08T06:09:44.541Z,93927
2023-03-08T06:10:47.142Z,93931.9
2023-03-08T06:11:49.730Z,93936.4
2023-03-08T06:12:52.199Z,93934.7
2023-03-08T06:13:54.441Z,93930.2
2023-03-08T06:14:56.960Z,93931.1
2023-03-08T06:15:59.248Z,93930.2
2023-03-08T06:17:02.287Z,93929.8
2023-03-08T06:18:04.049Z,93928.3
2023-03-08T06:19:06.572Z,93941
2023-03-08T06:20:09.075Z,93945.8
2023-03-08T06:21:11.268Z,93943.4
2023-03-08T06:22:13.755Z,93947
2023-03-08T06:23:15.998Z,93945.7
2023-03-08T06:24:18.553Z,93943.1
2023-03-08T06:25:21.976Z,93943.9
2023-03-08T06:26:24.805Z,93936.1
2023-03-08T06:27:27.451Z,93939
2023-03-08T06:28:29.998Z,93939.3
2023-03-08T06:29:32.517Z,93937.1
2023-03-08T06:30:35.119Z,93933.2
2023-03-08T06:31:37.439Z,93935.8
2023-03-08T06:32:39.965Z,93939.6
2023-03-08T06:33:42.558Z,93944.6
2023-03-08T06:34:45.135Z,93941.5
2023-03-08T06:35:47.932Z,93944.6
2023-03-08T06:36:50.450Z,93942.3
2023-03-08T06:37:52.973Z,93944.6
2023-03-08T06:38:55.220Z,93948
2023-03-08T06:39:57.747Z,93946.4
2023-03-08T06:41:00.252Z,93945.4
2023-03-08T06:42:02.838Z,93945.9
2023-03-08T06:43:05.359Z,93945
2023-03-08T06:44:07.576Z,93943.8
2023-03-08T06:45:09.667Z,93944.3
2023-03-08T06:46:12.482Z,93947.7
2023-03-08T06:47:14.835Z,93945.1
2023-03-08T06:48:17.060Z,93952.8
2023-03-08T06:49:18.996Z,93950.6
2023-03-08T06:50:21.244Z,93953.1
2023-03-08T06:51:23.760Z,93954
2023-03-08T06:52:25.993Z,93951.8
2023-03-08T06:53:28.536Z,93952.9
2023-03-08T06:54:30.500Z,93951.8
2023-03-08T06:55:32.737Z,93946.3
2023-03-08T06:56:34.982Z,93946.3
2023-03-08T06:57:37.660Z,93944.5
2023-03-08T06:58:40.221Z,93944.5
2023-03-08T06:59:42.446Z,93948.8
2023-03-08T07:00:45.047Z,93944.7
2023-03-08T07:01:47.275Z,93948.8
2023-03-08T07:02:49.501Z,93946.5
2023-03-08T07:03:52.008Z,93945.5
2023-03-08T07:04:54.529Z,93937.9
2023-03-08T07:05:56.771Z,93945.4
2023-03-08T07:06:59.547Z,93947
2023-03-08T07:08:01.978Z,93950.2
2023-03-08T07:09:03.944Z,93952.9
2023-03-08T07:10:06.191Z,93948.8
2023-03-08T07:11:08.708Z,93945.1
2023-03-08T07:12:11.222Z,93955.7
2023-03-08T07:13:13.817Z,93956.3
2023-03-08T07:14:16.180Z,93956
2023-03-08T07:15:18.390Z,93952
2023-03-08T07:16:21.319Z,93955.8
2023-03-08T07:17:23.899Z,93957.7
2023-03-08T07:18:26.431Z,93961.8
2023-03-08T07:19:28.930Z,93967.9
2023-03-08T07:20:31.163Z,93972
2023-03-08T07:21:33.977Z,93975.6
2023-03-08T07:22:36.142Z,93972.9
2023-03-08T07:23:38.671Z,93975.8
2023-03-08T07:24:41.167Z,93971.1
2023-03-08T07:25:43.403Z,93969.9
2023-03-08T07:26:45.921Z,93971.9
2023-03-08T07:27:48.142Z,93966.9
2023-03-08T07:28:50.740Z,93963.3
2023-03-08T07:30:59.233Z,93956.8
2023-03-08T07:32:01.585Z,93953.9
2023-03-08T07:33:04.549Z,93950.7
2023-03-08T07:34:06.890Z,93952.6
2023-03-08T07:35:09.429Z,93953.9
2023-03-08T07:36:12.422Z,93950.4
2023-03-08T07:37:14.598Z,93950.5
2023-03-08T07:38:17.140Z,93949.1
2023-03-08T07:39:19.429Z,93956.4
2023-03-08T07:40:21.660Z,93956.8
2023-03-08T07:41:24.183Z,93956.3
2023-03-08T07:42:26.448Z,93953.4
2023-03-08T07:43:28.705Z,93957
2023-03-08T07:44:31.420Z,93958.6
2023-03-08T07:45:33.815Z,93956
2023-03-08T07:46:36.626Z,93950.7
2023-03-08T07:47:39.231Z,93950.4
2023-03-08T07:48:41.732Z,93950.5
2023-03-08T07:49:44.014Z,93941.3
2023-03-08T07:50:46.622Z,93942.1
2023-03-08T07:51:48.912Z,93945.7
2023-03-08T07:52:51.587Z,93939.5
2023-03-08T07:53:53.293Z,93941.2
2023-03-08T07:54:55.887Z,93934.3
2023-03-08T07:55:58.437Z,93930.8
2023-03-08T07:57:00.981Z,93923.6
2023-03-08T07:58:03.506Z,93922.7
2023-03-08T07:59:06.002Z,93909.2
2023-03-08T08:00:08.345Z,93911.4
2023-03-08T08:01:10.901Z,93906
2023-03-08T08:02:12.862Z,93908.2
2023-03-08T08:03:15.152Z,93901.6
2023-03-08T08:04:17.674Z,93903.3
2023-03-08T08:05:20.314Z,93907
2023-03-08T08:06:23.251Z,93899.3
2023-03-08T08:07:25.198Z,93899.4
2023-03-08T08:08:27.484Z,93900.7
2023-03-08T08:09:30.004Z,93903
2023-03-08T08:10:32.554Z,93898.8
2023-03-08T08:11:34.790Z,93890.7
2023-03-08T08:12:37.380Z,93883.8
2023-03-08T08:13:39.907Z,93879.1
2023-03-08T08:14:42.161Z,93873.7
2023-03-08T08:15:44.269Z,93876.4
2023-03-08T08:16:47.111Z,93875.4
2023-03-08T08:17:49.327Z,93870.9
2023-03-08T08:18:51.875Z,93866.8
2023-03-08T08:19:54.447Z,93868.5
2023-03-08T08:20:56.668Z,93867.8
2023-03-08T08:21:58.675Z,93876.1
2023-03-08T08:23:00.944Z,93873.5
2023-03-08T08:24:03.519Z,93872.5
2023-03-08T08:25:06.084Z,93866.6
2023-03-08T08:26:08.642Z,93869.2
2023-03-08T08:27:10.908Z,93869.1
2023-03-08T08:28:14.995Z,93864
2023-03-08T08:29:17.271Z,93857.3
2023-03-08T08:30:19.842Z,93852.4
2023-03-08T08:31:22.549Z,93845.3
2023-03-08T08:32:25.610Z,93838.6
2023-03-08T08:33:28.011Z,93832.8
2023-03-08T08:34:30.261Z,93825.8
2023-03-08T08:36:37.501Z,93824.1
2023-03-08T08:37:39.777Z,93822.8
2023-03-08T08:38:42.314Z,93819.9
2023-03-08T08:39:44.574Z,93816.2
2023-03-08T08:40:46.794Z,93809.4
2023-03-08T08:41:49.316Z,93805.2
2023-03-08T08:42:51.845Z,93805.5
2023-03-08T08:43:54.399Z,93802.1
2023-03-08T08:44:56.930Z,93802.9
2023-03-08T08:45:59.394Z,93802.1
2023-03-08T08:47:02.161Z,93795.5
2023-03-08T08:48:04.724Z,93790.6
2023-03-08T08:49:07.244Z,93785.9
2023-03-08T08:50:09.487Z,93784
2023-03-08T08:51:16.504Z,93776.3
2023-03-08T08:52:18.742Z,93776.8
2023-03-08T08:53:21.697Z,93769.5
2023-03-08T08:54:24.039Z,93772.3
2023-03-08T08:55:26.733Z,93769.6
2023-03-08T08:56:29.651Z,93772.7
2023-03-08T08:57:31.910Z,93769.7
2023-03-08T08:58:34.432Z,93771.5
2023-03-08T08:59:36.961Z,93770.4
2023-03-08T09:00:39.210Z,93772.4
2023-03-08T09:01:41.468Z,93766.4
2023-03-08T09:02:44.377Z,93767.4
2023-03-08T09:03:47.271Z,93766.1
2023-03-08T09:04:50.410Z,93766.2
2023-03-08T09:05:52.762Z,93763.5
2023-03-08T09:06:55.015Z,93757.4
2023-03-08T09:07:57.561Z,93756.6
2023-03-08T09:09:00.123Z,93757.5
2023-03-08T09:10:02.804Z,93754.6
2023-03-08T09:11:05.061Z,93753
2023-03-08T09:12:07.610Z,93754.3
2023-03-08T09:13:10.140Z,93752.1
2023-03-08T09:14:12.451Z,93751.7
2023-03-08T09:15:14.965Z,93750.1
2023-03-08T09:16:17.775Z,93749.1
2023-03-08T09:17:20.090Z,93749.4
2023-03-08T09:18:22.703Z,93744.3
2023-03-08T09:19:25.471Z,93741.7
2023-03-08T09:20:28.060Z,93745.1
2023-03-08T09:21:30.030Z,93741
2023-03-08T09:22:32.285Z,93739.9
2023-03-08T09:23:34.804Z,93740.2
2023-03-08T09:24:37.354Z,93738.1
2023-03-08T09:25:39.598Z,93743.3
2023-03-08T09:26:41.934Z,93729.5
2023-03-08T09:27:44.226Z,93729
2023-03-08T09:28:46.801Z,93722.1
2023-03-08T09:29:49.368Z,93722.6
2023-03-08T09:30:51.327Z,93717.6
2023-03-08T09:31:54.124Z,93717
2023-03-08T09:32:56.913Z,93714.3
2023-03-08T09:33:59.598Z,93716
2023-03-08T09:35:02.321Z,93715.8
2023-03-08T09:36:04.874Z,93715.7
2023-03-08T09:37:07.145Z,93718.3
2023-03-08T09:38:09.681Z,93715
2023-03-08T09:39:12.326Z,93712.2
2023-03-08T09:40:14.562Z,93723.1
2023-03-08T09:41:17.109Z,93717.5
2023-03-08T09:42:19.770Z,93719.5
2023-03-08T09:43:22.398Z,93715.7
2023-03-08T09:44:24.991Z,93712.8
2023-03-08T09:45:27.534Z,93713.7
2023-03-08T09:46:30.054Z,93714.5
2023-03-08T09:47:32.588Z,93701.1
2023-03-08T09:48:35.140Z,93689.3
2023-03-08T09:49:37.453Z,93695.2
2023-03-08T09:50:39.816Z,93707
2023-03-08T09:51:42.338Z,93713.3
2023-03-08T09:52:44.333Z,93710.5
2023-03-08T09:53:46.321Z,93713.3
2023-03-08T09:54:49.038Z,93719.7
2023-03-08T09:55:51.325Z,93718.2
2023-03-08T09:56:53.882Z,93720.1
2023-03-08T09:57:56.510Z,93716.3
2023-03-08T09:58:58.394Z,93707.6
2023-03-08T10:00:00.922Z,93699.8
2023-03-08T10:01:03.440Z,93688.2
2023-03-08T10:02:06.050Z,93679
2023-03-08T10:03:08.903Z,93670.9
2023-03-08T10:04:10.806Z,93676
2023-03-08T10:05:15.665Z,93675.1
2023-03-08T10:06:18.254Z,93675.4
2023-03-08T10:07:19.926Z,93677.9
2023-03-08T10:08:22.450Z,93683.8
2023-03-08T10:09:24.977Z,93689.3
2023-03-08T10:10:27.231Z,93689.7
2023-03-08T10:11:29.490Z,93689.3
2023-03-08T10:12:31.773Z,93690
2023-03-08T10:13:34.465Z,93689
2023-03-08T10:14:37.035Z,93698.8
2023-03-08T10:16:44.520Z,93684.7
2023-03-08T10:17:47.095Z,93689.8
2023-03-08T10:18:49.642Z,93684.1
2023-03-08T10:19:51.878Z,93678.3
2023-03-08T10:20:54.475Z,93673.1
2023-03-08T10:21:57.060Z,93680.4
2023-03-08T10:22:59.604Z,93677.5
2023-03-08T10:24:02.264Z,93677.5
2023-03-08T10:25:04.859Z,93688.8
2023-03-08T10:26:07.361Z,93690.7
2023-03-08T10:27:10.027Z,93698.4
2023-03-08T10:28:12.523Z,93700
2023-03-08T10:29:15.084Z,93710.8
2023-03-08T10:30:17.339Z,93711.8
2023-03-08T10:31:19.565Z,93714.5
2023-03-08T10:32:22.436Z,93719.7
2023-03-08T10:33:25.174Z,93720.7
2023-03-08T10:34:27.758Z,93720.2
2023-03-08T10:35:30.151Z,93722
2023-03-08T10:36:32.620Z,93726.1
2023-03-08T10:37:35.240Z,93724.6
2023-03-08T10:38:37.829Z,93728.4
2023-03-08T10:39:39.816Z,93727
2023-03-08T10:40:42.362Z,93724.9
2023-03-08T10:41:44.637Z,93717.9
2023-03-08T10:42:47.160Z,93708.1
2023-03-08T10:43:49.502Z,93702.2
2023-03-08T10:44:52.045Z,93703
2023-03-08T10:45:54.656Z,93698.9
2023-03-08T10:46:57.002Z,93711.6
2023-03-08T10:47:59.004Z,93709.8
2023-03-08T10:49:01.600Z,93720.8
2023-03-08T10:50:04.196Z,93721.8
2023-03-08T10:51:06.809Z,93722.9
2023-03-08T10:52:09.241Z,93723.1
2023-03-08T10:53:11.276Z,93725.8
2023-03-08T10:54:13.820Z,93726.5
2023-03-08T10:55:16.137Z,93725.4
2023-03-08T10:56:18.871Z,93727.6
2023-03-08T10:57:21.186Z,93723
2023-03-08T10:58:23.790Z,93722.3
2023-03-08T10:59:26.313Z,93725.9
2023-03-08T11:00:28.591Z,93730.7
2023-03-08T11:01:30.924Z,93726.5
2023-03-08T11:02:33.468Z,93715.3
2023-03-08T11:03:36.002Z,93713.6
2023-03-08T11:04:38.396Z,93722.5
2023-03-08T11:05:40.753Z,93722.8
2023-03-08T11:06:43.340Z,93717.4
2023-03-08T11:07:46.016Z,93712.9
2023-03-08T11:08:48.361Z,93718.2
2023-03-08T11:09:50.903Z,93723
2023-03-08T11:10:53.660Z,93701.8
2023-03-08T11:11:56.069Z,93717.4
2023-03-08T11:12:58.306Z,93713.7
2023-03-08T11:14:00.856Z,93711.8
2023-03-08T11:15:03.480Z,93714
2023-03-08T11:16:06.260Z,93710.3
2023-03-08T11:17:09.025Z,93702.3
2023-03-08T11:19:16.702Z,93693.5
2023-03-08T11:20:19.165Z,93685.9
2023-03-08T11:21:21.095Z,93679.6
2023-03-08T11:22:22.779Z,93678.6
2023-03-08T11:23:25.412Z,93680.9
2023-03-08T11:24:28.158Z,93683.4
2023-03-08T11:25:30.872Z,93682.9
2023-03-08T11:26:33.105Z,93681.6
2023-03-08T11:27:35.457Z,93675.1
2023-03-08T11:28:38.207Z,93675.1
2023-03-08T11:29:39.944Z,93670.3
2023-03-08T11:30:42.449Z,93665.2
2023-03-08T11:31:44.730Z,93661.8
2023-03-08T11:32:48.330Z,93654.2
2023-03-08T11:33:51.680Z,93653.8
2023-03-08T11:34:54.227Z,93646.3
2023-03-08T11:35:56.394Z,93645.5
2023-03-08T11:36:59.115Z,93647.1
2023-03-08T11:38:01.413Z,93645.3
2023-03-08T11:39:03.795Z,93635.4
2023-03-08T11:40:06.369Z,93632.8
2023-03-08T11:41:08.948Z,93625.2
2023-03-08T11:43:16.174Z,93632.1
2023-03-08T11:44:18.734Z,93625.9
2023-03-08T11:45:20.412Z,93621.3
2023-03-08T11:46:23.050Z,93629
2023-03-08T11:47:25.725Z,93617.6
2023-03-08T11:48:28.164Z,93605.7
2023-03-08T11:49:30.837Z,93613.9
2023-03-08T11:50:32.812Z,93623.6
2023-03-08T11:51:35.334Z,93616.4
2023-03-08T11:52:37.871Z,93610.7
2023-03-08T11:53:39.559Z,93614.2
2023-03-08T11:54:43.522Z,93614
2023-03-08T11:55:46.106Z,93609.3
2023-03-08T11:56:48.345Z,93612.4
2023-03-08T11:57:50.876Z,93610.5
2023-03-08T11:58:53.443Z,93613.2
2023-03-08T11:59:55.984Z,93612.7
2023-03-08T12:00:58.504Z,93606.4
2023-03-08T12:02:01.029Z,93600.5
2023-03-08T12:03:03.309Z,93606.8
2023-03-08T12:04:06.569Z,93608.5
2023-03-08T12:05:09.295Z,93606.8
2023-03-08T12:07:17.280Z,93606
2023-03-08T12:08:19.836Z,93609.4
2023-03-08T12:09:22.281Z,93603.4
2023-03-08T12:10:25.400Z,93603.2
2023-03-08T12:11:28.032Z,93606.7
2023-03-08T12:12:30.568Z,93602.2
2023-03-08T12:13:33.109Z,93604.8
2023-03-08T12:14:35.629Z,93606.8
2023-03-08T12:15:38.394Z,93596.9
2023-03-08T12:16:41.433Z,93598.3
2023-03-08T12:17:44.235Z,93605.1
2023-03-08T12:18:46.817Z,93601.9
2023-03-08T12:19:49.340Z,93601.9
2023-03-08T12:20:51.325Z,93599.5
2023-03-08T12:21:53.569Z,93598.2
2023-03-08T12:22:56.552Z,93602.7
2023-03-08T12:23:59.051Z,93600.8
2023-03-08T12:25:01.120Z,93599.1
2023-03-08T12:26:03.730Z,93595.8
2023-03-08T12:27:06.433Z,93601.4
2023-03-08T12:28:08.891Z,93595
2023-03-08T12:29:11.735Z,93597.7
2023-03-08T12:30:14.446Z,93589.5
2023-03-08T12:32:22.649Z,93593.6
2023-03-08T12:33:25.721Z,93589.6
2023-03-08T12:34:28.274Z,93587.5
2023-03-08T12:35:30.735Z,93587
2023-03-08T12:36:33.584Z,93589.1
2023-03-08T12:37:36.691Z,93581.9
2023-03-08T12:38:39.604Z,93589.3
2023-03-08T12:39:42.042Z,93591.2
2023-03-08T12:40:44.563Z,93591.9
2023-03-08T12:41:47.624Z,93595.1
2023-03-08T12:42:50.333Z,93587
2023-03-08T12:43:52.297Z,93583.5
2023-03-08T12:44:54.828Z,93589.1
2023-03-08T12:45:57.346Z,93587
2023-03-08T12:48:05.102Z,93586.2
2023-03-08T12:49:07.114Z,93578.6
2023-03-08T12:50:09.376Z,93587.4